sensor_id;sensor_type;location;lat;lon;timestamp;P1;durP1;ratioP1;P2;durP2;ratioP2
71679;SDS011;59512;42.662;23.254;2024-03-06T00:01:35;29.17;;;16.83;;
71679;SDS011;59512;42.662;23.254;2024-03-06T00:04:01;28.63;;;16.20;;
71679;SDS011;59512;42.662;23.254;2024-03-06T00:06:28;29.13;;;16.98;;
71679;SDS011;59512;42.662;23.254;2024-03-06T00:08:54;31.80;;;17.33;;
71679;SDS011;59512;42.662;23.254;2024-03-06T00:11:19;30.93;;;17.63;;
71679;SDS011;59512;42.662;23.254;2024-03-06T00:13:45;30.50;;;18.23;;
71679;SDS011;59512;42.662;23.254;2024-03-06T00:16:12;30.15;;;17.48;;
71679;SDS011;59512;42.662;23.254;2024-03-06T00:18:38;35.47;;;17.70;;
71679;SDS011;59512;42.662;23.254;2024-03-06T00:21:13;29.77;;;18.00;;
71679;SDS011;59512;42.662;23.254;2024-03-06T00:23:40;35.28;;;20.95;;
71679;SDS011;59512;42.662;23.254;2024-03-06T00:26:05;32.70;;;18.57;;
71679;SDS011;59512;42.662;23.254;2024-03-06T00:28:31;35.60;;;18.13;;
71679;SDS011;59512;42.662;23.254;2024-03-06T00:30:56;34.15;;;18.98;;
71679;SDS011;59512;42.662;23.254;2024-03-06T00:33:22;34.55;;;19.75;;
71679;SDS011;59512;42.662;23.254;2024-03-06T00:35:48;34.30;;;18.70;;
71679;SDS011;59512;42.662;23.254;2024-03-06T00:38:13;35.60;;;19.92;;
71679;SDS011;59512;42.662;23.254;2024-03-06T00:40:39;38.97;;;20.43;;
71679;SDS011;59512;42.662;23.254;2024-03-06T00:43:04;39.17;;;21.57;;
71679;SDS011;59512;42.662;23.254;2024-03-06T00:45:30;39.30;;;22.33;;
71679;SDS011;59512;42.662;23.254;2024-03-06T00:47:55;47.22;;;24.92;;
71679;SDS011;59512;42.662;23.254;2024-03-06T00:50:21;39.57;;;23.07;;
71679;SDS011;59512;42.662;23.254;2024-03-06T00:52:47;39.08;;;23.08;;
71679;SDS011;59512;42.662;23.254;2024-03-06T00:55:13;41.43;;;24.00;;
71679;SDS011;59512;42.662;23.254;2024-03-06T00:57:39;43.15;;;24.17;;
71679;SDS011;59512;42.662;23.254;2024-03-06T01:00:04;41.87;;;23.77;;
71679;SDS011;59512;42.662;23.254;2024-03-06T01:02:35;44.47;;;24.13;;
71679;SDS011;59512;42.662;23.254;2024-03-06T01:05:04;45.33;;;25.73;;
71679;SDS011;59512;42.662;23.254;2024-03-06T01:07:30;52.50;;;25.93;;
71679;SDS011;59512;42.662;23.254;2024-03-06T01:09:56;45.45;;;25.60;;
71679;SDS011;59512;42.662;23.254;2024-03-06T01:12:22;42.40;;;24.60;;
71679;SDS011;59512;42.662;23.254;2024-03-06T01:14:51;41.15;;;24.40;;
71679;SDS011;59512;42.662;23.254;2024-03-06T01:17:16;44.03;;;25.33;;
71679;SDS011;59512;42.662;23.254;2024-03-06T01:19:41;47.47;;;25.92;;
71679;SDS011;59512;42.662;23.254;2024-03-06T01:22:10;48.03;;;26.80;;
71679;SDS011;59512;42.662;23.254;2024-03-06T01:24:35;47.90;;;26.25;;
71679;SDS011;59512;42.662;23.254;2024-03-06T01:27:01;47.93;;;27.13;;
71679;SDS011;59512;42.662;23.254;2024-03-06T01:29:28;39.63;;;23.20;;
71679;SDS011;59512;42.662;23.254;2024-03-06T01:31:53;44.70;;;25.17;;
71679;SDS011;59512;42.662;23.254;2024-03-06T01:34:36;54.57;;;28.50;;
71679;SDS011;59512;42.662;23.254;2024-03-06T01:37:09;51.38;;;27.30;;
71679;SDS011;59512;42.662;23.254;2024-03-06T01:39:35;47.50;;;25.10;;
71679;SDS011;59512;42.662;23.254;2024-03-06T01:42:01;45.17;;;25.77;;
71679;SDS011;59512;42.662;23.254;2024-03-06T01:44:27;41.33;;;22.27;;
71679;SDS011;59512;42.662;23.254;2024-03-06T01:46:52;39.78;;;21.63;;
71679;SDS011;59512;42.662;23.254;2024-03-06T01:49:19;38.55;;;20.40;;
71679;SDS011;59512;42.662;23.254;2024-03-06T01:51:48;43.00;;;22.67;;
71679;SDS011;59512;42.662;23.254;2024-03-06T01:54:15;39.50;;;22.75;;
71679;SDS011;59512;42.662;23.254;2024-03-06T01:56:44;35.95;;;19.92;;
71679;SDS011;59512;42.662;23.254;2024-03-06T01:59:10;34.15;;;19.02;;
71679;SDS011;59512;42.662;23.254;2024-03-06T02:01:36;34.83;;;18.90;;
71679;SDS011;59512;42.662;23.254;2024-03-06T02:04:02;32.95;;;19.45;;
71679;SDS011;59512;42.662;23.254;2024-03-06T02:06:28;33.17;;;18.60;;
71679;SDS011;59512;42.662;23.254;2024-03-06T02:08:53;34.03;;;19.07;;
71679;SDS011;59512;42.662;23.254;2024-03-06T02:11:18;29.63;;;17.30;;
71679;SDS011;59512;42.662;23.254;2024-03-06T02:13:44;32.63;;;17.40;;
71679;SDS011;59512;42.662;23.254;2024-03-06T02:16:10;32.43;;;16.57;;
71679;SDS011;59512;42.662;23.254;2024-03-06T02:18:35;29.52;;;15.48;;
71679;SDS011;59512;42.662;23.254;2024-03-06T02:21:01;27.40;;;14.93;;
71679;SDS011;59512;42.662;23.254;2024-03-06T02:23:27;28.10;;;16.67;;
71679;SDS011;59512;42.662;23.254;2024-03-06T02:25:53;31.23;;;17.33;;
71679;SDS011;59512;42.662;23.254;2024-03-06T02:28:18;28.27;;;15.93;;
71679;SDS011;59512;42.662;23.254;2024-03-06T02:30:44;28.98;;;15.65;;
71679;SDS011;59512;42.662;23.254;2024-03-06T02:33:09;27.87;;;15.37;;
71679;SDS011;59512;42.662;23.254;2024-03-06T02:35:37;27.77;;;14.93;;
71679;SDS011;59512;42.662;23.254;2024-03-06T02:38:04;30.33;;;17.73;;
71679;SDS011;59512;42.662;23.254;2024-03-06T02:40:31;29.73;;;16.52;;
71679;SDS011;59512;42.662;23.254;2024-03-06T02:42:56;29.10;;;17.20;;
71679;SDS011;59512;42.662;23.254;2024-03-06T02:45:22;34.30;;;18.70;;
71679;SDS011;59512;42.662;23.254;2024-03-06T02:47:47;37.38;;;19.48;;
71679;SDS011;59512;42.662;23.254;2024-03-06T02:50:12;33.50;;;18.27;;
71679;SDS011;59512;42.662;23.254;2024-03-06T02:52:38;34.13;;;19.43;;
71679;SDS011;59512;42.662;23.254;2024-03-06T02:55:04;33.10;;;18.95;;
71679;SDS011;59512;42.662;23.254;2024-03-06T02:57:30;33.17;;;19.33;;
71679;SDS011;59512;42.662;23.254;2024-03-06T02:59:56;33.07;;;20.13;;
71679;SDS011;59512;42.662;23.254;2024-03-06T03:02:22;32.22;;;18.48;;
71679;SDS011;59512;42.662;23.254;2024-03-06T03:04:48;30.33;;;18.33;;
71679;SDS011;59512;42.662;23.254;2024-03-06T03:07:14;32.00;;;19.07;;
71679;SDS011;59512;42.662;23.254;2024-03-06T03:09:39;33.50;;;19.13;;
71679;SDS011;59512;42.662;23.254;2024-03-06T03:12:05;32.78;;;17.85;;
71679;SDS011;59512;42.662;23.254;2024-03-06T03:14:30;28.77;;;16.52;;
71679;SDS011;59512;42.662;23.254;2024-03-06T03:16:57;31.77;;;16.70;;
71679;SDS011;59512;42.662;23.254;2024-03-06T03:19:23;30.00;;;17.25;;
71679;SDS011;59512;42.662;23.254;2024-03-06T03:21:49;30.37;;;16.30;;
71679;SDS011;59512;42.662;23.254;2024-03-06T03:24:14;34.07;;;17.73;;
71679;SDS011;59512;42.662;23.254;2024-03-06T03:26:39;36.27;;;17.83;;
71679;SDS011;59512;42.662;23.254;2024-03-06T03:29:07;30.25;;;16.40;;
71679;SDS011;59512;42.662;23.254;2024-03-06T03:31:32;28.53;;;15.63;;
71679;SDS011;59512;42.662;23.254;2024-03-06T03:33:58;28.35;;;15.55;;
71679;SDS011;59512;42.662;23.254;2024-03-06T03:36:23;31.13;;;15.35;;
71679;SDS011;59512;42.662;23.254;2024-03-06T03:38:49;28.10;;;15.67;;
71679;SDS011;59512;42.662;23.254;2024-03-06T03:41:15;28.38;;;15.85;;
71679;SDS011;59512;42.662;23.254;2024-03-06T03:43:41;27.88;;;15.32;;
71679;SDS011;59512;42.662;23.254;2024-03-06T03:46:07;30.45;;;16.30;;
71679;SDS011;59512;42.662;23.254;2024-03-06T03:48:34;36.95;;;18.30;;
71679;SDS011;59512;42.662;23.254;2024-03-06T03:51:02;45.67;;;23.80;;
71679;SDS011;59512;42.662;23.254;2024-03-06T03:53:31;47.45;;;23.63;;
71679;SDS011;59512;42.662;23.254;2024-03-06T03:55:57;47.75;;;22.77;;
71679;SDS011;59512;42.662;23.254;2024-03-06T03:58:23;40.60;;;20.20;;
71679;SDS011;59512;42.662;23.254;2024-03-06T04:00:48;50.10;;;25.02;;
71679;SDS011;59512;42.662;23.254;2024-03-06T04:03:17;45.47;;;23.90;;
71679;SDS011;59512;42.662;23.254;2024-03-06T04:05:43;40.08;;;21.15;;
71679;SDS011;59512;42.662;23.254;2024-03-06T04:08:09;40.50;;;21.33;;
71679;SDS011;59512;42.662;23.254;2024-03-06T04:10:34;41.97;;;22.30;;
71679;SDS011;59512;42.662;23.254;2024-03-06T04:13:00;44.30;;;24.40;;
71679;SDS011;59512;42.662;23.254;2024-03-06T04:15:26;44.37;;;22.80;;
71679;SDS011;59512;42.662;23.254;2024-03-06T04:17:51;38.28;;;20.38;;
71679;SDS011;59512;42.662;23.254;2024-03-06T04:20:17;35.30;;;17.20;;
71679;SDS011;59512;42.662;23.254;2024-03-06T04:22:42;33.42;;;16.52;;
71679;SDS011;59512;42.662;23.254;2024-03-06T04:25:08;31.47;;;17.23;;
71679;SDS011;59512;42.662;23.254;2024-03-06T04:27:34;33.25;;;17.40;;
71679;SDS011;59512;42.662;23.254;2024-03-06T04:30:00;33.20;;;19.97;;
71679;SDS011;59512;42.662;23.254;2024-03-06T04:32:25;34.70;;;18.60;;
71679;SDS011;59512;42.662;23.254;2024-03-06T04:34:50;28.80;;;15.80;;
71679;SDS011;59512;42.662;23.254;2024-03-06T04:37:16;27.73;;;16.30;;
71679;SDS011;59512;42.662;23.254;2024-03-06T04:39:41;26.80;;;14.50;;
71679;SDS011;59512;42.662;23.254;2024-03-06T04:42:06;26.40;;;14.95;;
71679;SDS011;59512;42.662;23.254;2024-03-06T04:44:35;28.27;;;15.90;;
71679;SDS011;59512;42.662;23.254;2024-03-06T04:47:01;28.73;;;14.67;;
71679;SDS011;59512;42.662;23.254;2024-03-06T04:49:26;27.75;;;15.13;;
71679;SDS011;59512;42.662;23.254;2024-03-06T04:51:52;27.37;;;14.03;;
71679;SDS011;59512;42.662;23.254;2024-03-06T04:54:17;28.13;;;14.40;;
71679;SDS011;59512;42.662;23.254;2024-03-06T04:56:42;29.23;;;14.70;;
71679;SDS011;59512;42.662;23.254;2024-03-06T04:59:08;28.40;;;15.47;;
71679;SDS011;59512;42.662;23.254;2024-03-06T05:01:33;25.30;;;14.77;;
71679;SDS011;59512;42.662;23.254;2024-03-06T05:03:59;28.23;;;15.88;;
71679;SDS011;59512;42.662;23.254;2024-03-06T05:06:24;25.80;;;13.50;;
71679;SDS011;59512;42.662;23.254;2024-03-06T05:08:49;33.67;;;19.57;;
71679;SDS011;59512;42.662;23.254;2024-03-06T05:11:15;33.80;;;19.63;;
71679;SDS011;59512;42.662;23.254;2024-03-06T05:13:40;33.30;;;18.87;;
71679;SDS011;59512;42.662;23.254;2024-03-06T05:16:06;34.33;;;18.97;;
71679;SDS011;59512;42.662;23.254;2024-03-06T05:18:34;31.75;;;18.13;;
71679;SDS011;59512;42.662;23.254;2024-03-06T05:20:59;31.17;;;17.80;;
71679;SDS011;59512;42.662;23.254;2024-03-06T05:23:25;35.67;;;19.90;;
71679;SDS011;59512;42.662;23.254;2024-03-06T05:25:50;36.43;;;20.03;;
71679;SDS011;59512;42.662;23.254;2024-03-06T05:28:16;32.30;;;18.90;;
71679;SDS011;59512;42.662;23.254;2024-03-06T05:30:41;30.60;;;18.50;;
71679;SDS011;59512;42.662;23.254;2024-03-06T05:33:06;36.17;;;19.60;;
71679;SDS011;59512;42.662;23.254;2024-03-06T05:35:32;38.70;;;20.73;;
71679;SDS011;59512;42.662;23.254;2024-03-06T05:37:58;34.35;;;19.05;;
71679;SDS011;59512;42.662;23.254;2024-03-06T05:40:23;32.13;;;17.58;;
71679;SDS011;59512;42.662;23.254;2024-03-06T05:42:49;32.95;;;18.73;;
71679;SDS011;59512;42.662;23.254;2024-03-06T05:45:14;37.47;;;22.08;;
71679;SDS011;59512;42.662;23.254;2024-03-06T05:47:40;36.43;;;20.27;;
71679;SDS011;59512;42.662;23.254;2024-03-06T05:50:05;34.57;;;20.37;;
71679;SDS011;59512;42.662;23.254;2024-03-06T05:52:31;32.28;;;18.98;;
71679;SDS011;59512;42.662;23.254;2024-03-06T05:54:57;32.87;;;18.17;;
71679;SDS011;59512;42.662;23.254;2024-03-06T05:57:22;35.67;;;19.77;;
71679;SDS011;59512;42.662;23.254;2024-03-06T05:59:47;35.27;;;19.97;;
71679;SDS011;59512;42.662;23.254;2024-03-06T06:02:13;35.13;;;19.77;;
71679;SDS011;59512;42.662;23.254;2024-03-06T06:04:41;32.90;;;18.92;;
71679;SDS011;59512;42.662;23.254;2024-03-06T06:07:06;32.87;;;18.80;;
71679;SDS011;59512;42.662;23.254;2024-03-06T06:09:32;32.27;;;17.80;;
71679;SDS011;59512;42.662;23.254;2024-03-06T06:11:58;32.40;;;18.90;;
71679;SDS011;59512;42.662;23.254;2024-03-06T06:14:23;37.27;;;19.17;;
71679;SDS011;59512;42.662;23.254;2024-03-06T06:16:49;34.83;;;19.25;;
71679;SDS011;59512;42.662;23.254;2024-03-06T06:19:15;32.97;;;19.50;;
71679;SDS011;59512;42.662;23.254;2024-03-06T06:21:41;56.63;;;27.83;;
71679;SDS011;59512;42.662;23.254;2024-03-06T06:24:07;47.37;;;23.37;;
71679;SDS011;59512;42.662;23.254;2024-03-06T06:26:33;55.83;;;27.15;;
71679;SDS011;59512;42.662;23.254;2024-03-06T06:28:58;51.73;;;27.60;;
71679;SDS011;59512;42.662;23.254;2024-03-06T06:31:23;45.78;;;22.75;;
71679;SDS011;59512;42.662;23.254;2024-03-06T06:33:50;42.15;;;22.25;;
71679;SDS011;59512;42.662;23.254;2024-03-06T06:36:16;40.80;;;21.88;;
71679;SDS011;59512;42.662;23.254;2024-03-06T06:38:43;38.17;;;21.48;;
71679;SDS011;59512;42.662;23.254;2024-03-06T06:41:09;41.13;;;23.38;;
71679;SDS011;59512;42.662;23.254;2024-03-06T06:43:35;39.77;;;22.37;;
71679;SDS011;59512;42.662;23.254;2024-03-06T06:46:01;44.58;;;24.95;;
71679;SDS011;59512;42.662;23.254;2024-03-06T06:48:26;42.70;;;25.07;;
71679;SDS011;59512;42.662;23.254;2024-03-06T06:50:52;42.90;;;26.58;;
71679;SDS011;59512;42.662;23.254;2024-03-06T06:53:17;44.80;;;25.63;;
71679;SDS011;59512;42.662;23.254;2024-03-06T06:55:42;43.60;;;24.63;;
71679;SDS011;59512;42.662;23.254;2024-03-06T06:58:08;42.90;;;23.80;;
71679;SDS011;59512;42.662;23.254;2024-03-06T07:00:33;40.85;;;23.83;;
71679;SDS011;59512;42.662;23.254;2024-03-06T07:02:59;41.03;;;24.15;;
71679;SDS011;59512;42.662;23.254;2024-03-06T07:05:25;41.47;;;22.93;;
71679;SDS011;59512;42.662;23.254;2024-03-06T07:10:40;44.17;;;24.27;;
71679;SDS011;59512;42.662;23.254;2024-03-06T07:13:05;48.83;;;25.43;;
71679;SDS011;59512;42.662;23.254;2024-03-06T07:18:00;39.88;;;23.08;;
71679;SDS011;59512;42.662;23.254;2024-03-06T07:20:26;47.30;;;25.43;;
71679;SDS011;59512;42.662;23.254;2024-03-06T07:22:51;46.55;;;25.55;;
71679;SDS011;59512;42.662;23.254;2024-03-06T07:25:17;51.97;;;25.98;;
71679;SDS011;59512;42.662;23.254;2024-03-06T07:27:42;44.77;;;25.00;;
71679;SDS011;59512;42.662;23.254;2024-03-06T07:30:08;43.43;;;23.70;;
71679;SDS011;59512;42.662;23.254;2024-03-06T07:32:33;41.67;;;23.63;;
71679;SDS011;59512;42.662;23.254;2024-03-06T07:34:59;41.10;;;23.05;;
71679;SDS011;59512;42.662;23.254;2024-03-06T07:37:24;43.53;;;24.37;;
71679;SDS011;59512;42.662;23.254;2024-03-06T07:39:50;39.60;;;23.23;;
71679;SDS011;59512;42.662;23.254;2024-03-06T07:42:15;40.90;;;23.60;;
71679;SDS011;59512;42.662;23.254;2024-03-06T07:44:40;38.73;;;22.03;;
71679;SDS011;59512;42.662;23.254;2024-03-06T07:47:07;39.37;;;22.47;;
71679;SDS011;59512;42.662;23.254;2024-03-06T07:49:34;40.83;;;22.48;;
71679;SDS011;59512;42.662;23.254;2024-03-06T07:52:00;37.58;;;21.48;;
71679;SDS011;59512;42.662;23.254;2024-03-06T07:54:25;43.33;;;22.33;;
71679;SDS011;59512;42.662;23.254;2024-03-06T07:56:50;40.07;;;22.00;;
71679;SDS011;59512;42.662;23.254;2024-03-06T07:59:16;38.88;;;21.08;;
71679;SDS011;59512;42.662;23.254;2024-03-06T08:01:43;38.23;;;21.50;;
71679;SDS011;59512;42.662;23.254;2024-03-06T08:04:08;41.10;;;20.85;;
71679;SDS011;59512;42.662;23.254;2024-03-06T08:06:34;37.97;;;20.90;;
71679;SDS011;59512;42.662;23.254;2024-03-06T08:09:09;38.23;;;20.67;;
71679;SDS011;59512;42.662;23.254;2024-03-06T08:11:35;36.58;;;19.83;;
71679;SDS011;59512;42.662;23.254;2024-03-06T08:14:00;30.33;;;18.95;;
71679;SDS011;59512;42.662;23.254;2024-03-06T08:16:29;35.23;;;19.70;;
71679;SDS011;59512;42.662;23.254;2024-03-06T08:18:55;39.03;;;21.83;;
71679;SDS011;59512;42.662;23.254;2024-03-06T08:21:21;41.30;;;21.13;;
71679;SDS011;59512;42.662;23.254;2024-03-06T08:23:48;39.97;;;21.13;;
71679;SDS011;59512;42.662;23.254;2024-03-06T08:26:14;33.03;;;20.60;;
71679;SDS011;59512;42.662;23.254;2024-03-06T08:28:39;38.90;;;21.67;;
71679;SDS011;59512;42.662;23.254;2024-03-06T08:31:05;36.13;;;20.47;;
71679;SDS011;59512;42.662;23.254;2024-03-06T08:33:30;36.27;;;21.10;;
71679;SDS011;59512;42.662;23.254;2024-03-06T08:35:56;39.90;;;23.83;;
71679;SDS011;59512;42.662;23.254;2024-03-06T08:38:23;34.80;;;21.23;;
71679;SDS011;59512;42.662;23.254;2024-03-06T08:40:48;37.92;;;20.90;;
71679;SDS011;59512;42.662;23.254;2024-03-06T08:43:14;38.93;;;21.23;;
71679;SDS011;59512;42.662;23.254;2024-03-06T08:45:41;40.38;;;21.90;;
71679;SDS011;59512;42.662;23.254;2024-03-06T08:48:08;38.65;;;21.38;;
71679;SDS011;59512;42.662;23.254;2024-03-06T08:50:34;38.17;;;21.27;;
71679;SDS011;59512;42.662;23.254;2024-03-06T08:52:59;37.35;;;19.98;;
71679;SDS011;59512;42.662;23.254;2024-03-06T08:55:27;37.70;;;21.30;;
71679;SDS011;59512;42.662;23.254;2024-03-06T08:57:53;35.40;;;20.60;;
71679;SDS011;59512;42.662;23.254;2024-03-06T09:03:01;40.93;;;21.53;;
71679;SDS011;59512;42.662;23.254;2024-03-06T09:05:27;41.72;;;21.38;;
71679;SDS011;59512;42.662;23.254;2024-03-06T09:10:46;36.75;;;22.17;;
71679;SDS011;59512;42.662;23.254;2024-03-06T09:13:12;40.60;;;22.60;;
71679;SDS011;59512;42.662;23.254;2024-03-06T09:15:37;44.07;;;24.57;;
71679;SDS011;59512;42.662;23.254;2024-03-06T09:18:02;36.47;;;22.70;;
71679;SDS011;59512;42.662;23.254;2024-03-06T09:20:28;37.05;;;23.17;;
71679;SDS011;59512;42.662;23.254;2024-03-06T09:22:55;38.80;;;23.63;;
71679;SDS011;59512;42.662;23.254;2024-03-06T09:25:24;39.85;;;23.00;;
71679;SDS011;59512;42.662;23.254;2024-03-06T09:27:49;41.30;;;24.33;;
71679;SDS011;59512;42.662;23.254;2024-03-06T09:30:16;44.57;;;24.70;;
71679;SDS011;59512;42.662;23.254;2024-03-06T09:32:42;48.50;;;26.60;;
71679;SDS011;59512;42.662;23.254;2024-03-06T09:35:09;46.67;;;24.45;;
71679;SDS011;59512;42.662;23.254;2024-03-06T09:40:26;43.22;;;23.83;;
71679;SDS011;59512;42.662;23.254;2024-03-06T09:42:54;44.53;;;21.65;;
71679;SDS011;59512;42.662;23.254;2024-03-06T09:48:05;38.45;;;21.67;;
71679;SDS011;59512;42.662;23.254;2024-03-06T09:50:31;36.47;;;20.80;;
71679;SDS011;59512;42.662;23.254;2024-03-06T09:53:01;39.83;;;19.37;;
71679;SDS011;59512;42.662;23.254;2024-03-06T09:55:29;40.58;;;20.25;;
71679;SDS011;59512;42.662;23.254;2024-03-06T09:57:55;40.65;;;19.80;;
71679;SDS011;59512;42.662;23.254;2024-03-06T10:00:20;39.63;;;20.07;;
71679;SDS011;59512;42.662;23.254;2024-03-06T10:03:19;34.38;;;20.67;;
71679;SDS011;59512;42.662;23.254;2024-03-06T10:05:38;33.00;;;18.65;;
71679;SDS011;59512;42.662;23.254;2024-03-06T10:08:04;35.87;;;20.70;;
71679;SDS011;59512;42.662;23.254;2024-03-06T10:10:30;30.23;;;17.35;;
71679;SDS011;59512;42.662;23.254;2024-03-06T10:12:55;29.90;;;15.93;;
71679;SDS011;59512;42.662;23.254;2024-03-06T10:15:25;26.08;;;15.60;;
71679;SDS011;59512;42.662;23.254;2024-03-06T10:18:09;30.55;;;15.98;;
71679;SDS011;59512;42.662;23.254;2024-03-06T10:20:38;29.73;;;16.48;;
71679;SDS011;59512;42.662;23.254;2024-03-06T10:23:18;26.90;;;15.17;;
71679;SDS011;59512;42.662;23.254;2024-03-06T10:25:43;24.67;;;14.43;;
71679;SDS011;59512;42.662;23.254;2024-03-06T10:28:20;26.83;;;15.03;;
71679;SDS011;59512;42.662;23.254;2024-03-06T10:30:47;31.58;;;14.85;;
71679;SDS011;59512;42.662;23.254;2024-03-06T10:33:13;27.63;;;15.85;;
71679;SDS011;59512;42.662;23.254;2024-03-06T10:35:40;28.63;;;14.37;;
71679;SDS011;59512;42.662;23.254;2024-03-06T10:38:07;22.17;;;12.88;;
71679;SDS011;59512;42.662;23.254;2024-03-06T10:40:36;21.23;;;11.65;;
71679;SDS011;59512;42.662;23.254;2024-03-06T10:43:03;24.88;;;12.57;;
71679;SDS011;59512;42.662;23.254;2024-03-06T10:48:25;22.20;;;12.43;;
71679;SDS011;59512;42.662;23.254;2024-03-06T10:50:51;21.85;;;11.02;;
71679;SDS011;59512;42.662;23.254;2024-03-06T10:53:17;15.65;;;9.02;;
71679;SDS011;59512;42.662;23.254;2024-03-06T10:55:43;12.93;;;7.13;;
71679;SDS011;59512;42.662;23.254;2024-03-06T10:58:09;15.68;;;8.00;;
71679;SDS011;59512;42.662;23.254;2024-03-06T11:00:42;12.80;;;7.28;;
71679;SDS011;59512;42.662;23.254;2024-03-06T11:03:11;14.75;;;7.93;;
71679;SDS011;59512;42.662;23.254;2024-03-06T11:05:40;13.50;;;8.07;;
71679;SDS011;59512;42.662;23.254;2024-03-06T11:08:11;13.93;;;7.60;;
71679;SDS011;59512;42.662;23.254;2024-03-06T11:10:38;14.55;;;7.40;;
71679;SDS011;59512;42.662;23.254;2024-03-06T11:13:08;17.15;;;8.38;;
71679;SDS011;59512;42.662;23.254;2024-03-06T11:15:56;16.23;;;8.02;;
71679;SDS011;59512;42.662;23.254;2024-03-06T11:23:29;15.50;;;7.07;;
71679;SDS011;59512;42.662;23.254;2024-03-06T11:26:03;15.07;;;8.48;;
71679;SDS011;59512;42.662;23.254;2024-03-06T11:33:28;16.92;;;8.95;;
71679;SDS011;59512;42.662;23.254;2024-03-06T11:38:55;13.70;;;8.35;;
71679;SDS011;59512;42.662;23.254;2024-03-06T11:44:00;13.27;;;7.63;;
71679;SDS011;59512;42.662;23.254;2024-03-06T11:46:44;13.27;;;8.60;;
71679;SDS011;59512;42.662;23.254;2024-03-06T11:49:19;14.10;;;7.95;;
71679;SDS011;59512;42.662;23.254;2024-03-06T11:51:46;13.18;;;8.05;;
71679;SDS011;59512;42.662;23.254;2024-03-06T11:54:13;16.85;;;8.68;;
71679;SDS011;59512;42.662;23.254;2024-03-06T11:56:39;14.23;;;8.07;;
71679;SDS011;59512;42.662;23.254;2024-03-06T11:59:05;16.35;;;8.68;;
71679;SDS011;59512;42.662;23.254;2024-03-06T12:01:34;14.77;;;8.48;;
71679;SDS011;59512;42.662;23.254;2024-03-06T12:04:01;17.05;;;8.00;;
71679;SDS011;59512;42.662;23.254;2024-03-06T12:06:27;14.17;;;6.87;;
71679;SDS011;59512;42.662;23.254;2024-03-06T12:08:53;12.52;;;7.70;;
71679;SDS011;59512;42.662;23.254;2024-03-06T12:11:19;12.70;;;6.63;;
71679;SDS011;59512;42.662;23.254;2024-03-06T12:13:46;12.20;;;7.18;;
71679;SDS011;59512;42.662;23.254;2024-03-06T12:16:13;12.73;;;6.80;;
71679;SDS011;59512;42.662;23.254;2024-03-06T12:18:38;14.05;;;7.10;;
71679;SDS011;59512;42.662;23.254;2024-03-06T12:21:04;10.17;;;5.97;;
71679;SDS011;59512;42.662;23.254;2024-03-06T12:23:29;13.43;;;7.00;;
71679;SDS011;59512;42.662;23.254;2024-03-06T12:26:08;11.93;;;6.40;;
71679;SDS011;59512;42.662;23.254;2024-03-06T12:28:35;10.32;;;6.13;;
71679;SDS011;59512;42.662;23.254;2024-03-06T12:31:04;11.02;;;6.40;;
71679;SDS011;59512;42.662;23.254;2024-03-06T12:33:31;11.73;;;6.10;;
71679;SDS011;59512;42.662;23.254;2024-03-06T12:36:03;13.10;;;6.80;;
71679;SDS011;59512;42.662;23.254;2024-03-06T12:38:35;14.97;;;6.60;;
71679;SDS011;59512;42.662;23.254;2024-03-06T12:41:01;13.10;;;6.75;;
71679;SDS011;59512;42.662;23.254;2024-03-06T12:43:26;14.97;;;7.23;;
71679;SDS011;59512;42.662;23.254;2024-03-06T12:45:53;13.50;;;6.63;;
71679;SDS011;59512;42.662;23.254;2024-03-06T12:48:20;10.73;;;5.95;;
71679;SDS011;59512;42.662;23.254;2024-03-06T12:50:46;16.00;;;7.10;;
71679;SDS011;59512;42.662;23.254;2024-03-06T12:53:16;9.93;;;6.07;;
71679;SDS011;59512;42.662;23.254;2024-03-06T12:55:43;10.32;;;5.82;;
71679;SDS011;59512;42.662;23.254;2024-03-06T12:58:11;14.10;;;7.03;;
71679;SDS011;59512;42.662;23.254;2024-03-06T13:00:36;11.48;;;7.28;;
71679;SDS011;59512;42.662;23.254;2024-03-06T13:03:02;13.00;;;7.50;;
71679;SDS011;59512;42.662;23.254;2024-03-06T13:05:27;15.30;;;7.70;;
71679;SDS011;59512;42.662;23.254;2024-03-06T13:07:52;12.93;;;7.03;;
71679;SDS011;59512;42.662;23.254;2024-03-06T13:10:18;13.47;;;6.50;;
71679;SDS011;59512;42.662;23.254;2024-03-06T13:12:43;14.70;;;7.30;;
71679;SDS011;59512;42.662;23.254;2024-03-06T13:15:09;12.33;;;6.53;;
71679;SDS011;59512;42.662;23.254;2024-03-06T13:17:35;12.93;;;7.15;;
71679;SDS011;59512;42.662;23.254;2024-03-06T13:20:00;15.63;;;7.20;;
71679;SDS011;59512;42.662;23.254;2024-03-06T13:22:26;15.82;;;7.03;;
71679;SDS011;59512;42.662;23.254;2024-03-06T13:24:51;13.27;;;6.57;;
71679;SDS011;59512;42.662;23.254;2024-03-06T13:27:17;14.40;;;6.43;;
71679;SDS011;59512;42.662;23.254;2024-03-06T13:29:42;14.38;;;7.18;;
71679;SDS011;59512;42.662;23.254;2024-03-06T13:32:08;15.03;;;7.97;;
71679;SDS011;59512;42.662;23.254;2024-03-06T13:34:33;16.03;;;6.97;;
71679;SDS011;59512;42.662;23.254;2024-03-06T13:36:59;10.47;;;6.00;;
71679;SDS011;59512;42.662;23.254;2024-03-06T13:39:24;12.73;;;6.55;;
71679;SDS011;59512;42.662;23.254;2024-03-06T13:41:50;14.33;;;7.50;;
71679;SDS011;59512;42.662;23.254;2024-03-06T13:44:17;12.70;;;7.35;;
71679;SDS011;59512;42.662;23.254;2024-03-06T13:46:42;14.57;;;7.00;;
71679;SDS011;59512;42.662;23.254;2024-03-06T13:49:12;14.73;;;7.50;;
71679;SDS011;59512;42.662;23.254;2024-03-06T13:51:59;15.63;;;7.80;;
71679;SDS011;59512;42.662;23.254;2024-03-06T13:54:24;25.43;;;11.23;;
71679;SDS011;59512;42.662;23.254;2024-03-06T13:56:50;16.40;;;7.60;;
71679;SDS011;59512;42.662;23.254;2024-03-06T13:59:15;14.13;;;7.20;;
71679;SDS011;59512;42.662;23.254;2024-03-06T14:01:41;13.13;;;6.60;;
71679;SDS011;59512;42.662;23.254;2024-03-06T14:04:07;14.48;;;6.78;;
71679;SDS011;59512;42.662;23.254;2024-03-06T14:06:32;14.17;;;6.90;;
71679;SDS011;59512;42.662;23.254;2024-03-06T14:08:59;11.48;;;6.13;;
71679;SDS011;59512;42.662;23.254;2024-03-06T14:11:24;13.57;;;6.50;;
71679;SDS011;59512;42.662;23.254;2024-03-06T14:13:50;15.70;;;6.85;;
71679;SDS011;59512;42.662;23.254;2024-03-06T14:16:16;13.13;;;6.00;;
71679;SDS011;59512;42.662;23.254;2024-03-06T14:18:41;12.67;;;6.80;;
71679;SDS011;59512;42.662;23.254;2024-03-06T14:21:06;14.23;;;6.83;;
71679;SDS011;59512;42.662;23.254;2024-03-06T14:23:32;11.43;;;6.43;;
71679;SDS011;59512;42.662;23.254;2024-03-06T14:25:57;13.87;;;7.53;;
71679;SDS011;59512;42.662;23.254;2024-03-06T14:28:23;13.37;;;7.50;;
71679;SDS011;59512;42.662;23.254;2024-03-06T14:30:48;12.23;;;7.13;;
71679;SDS011;59512;42.662;23.254;2024-03-06T14:33:13;13.20;;;8.60;;
71679;SDS011;59512;42.662;23.254;2024-03-06T14:35:39;13.80;;;8.10;;
71679;SDS011;59512;42.662;23.254;2024-03-06T14:38:04;14.70;;;8.53;;
71679;SDS011;59512;42.662;23.254;2024-03-06T14:40:30;15.17;;;8.30;;
71679;SDS011;59512;42.662;23.254;2024-03-06T14:42:55;15.83;;;8.33;;